Time;durP1;ratioP1;P1;durP2;ratioP2;P2;SDS_P1;SDS_P2;PMS_P1;PMS_P2;Temp;Humidity;BMP_temperature;BMP_pressure;BME280_temperature;BME280_humidity;BME280_pressure;Samples;Min_cycle;Max_cycle;Signal;HPM_P1;HPM_P2
2021/08/10 09:07:55;;;;;;;4.90;3.10;;;21.20;1.00;;;;;;5518149;23;20530;31
2021/08/10 09:10:35;;;;;;;4.80;4.40;;;21.90;1.00;;;;;;4961022;29;20560;-63
2021/08/10 09:13:04;;;;;;;4.23;3.80;;;22.00;1.00;;;;;;4962720;29;20437;-63
2021/08/10 09:15:36;;;;;;;5.03;4.20;;;22.10;1.00;;;;;;4962066;29;20466;-63
2021/08/10 09:18:18;;;;;;;5.67;4.90;;;21.60;1.00;;;;;;4962748;29;20564;-62
2021/08/10 09:21:08;;;;;;;5.23;4.73;;;21.60;1.00;;;;;;4959793;28;20473;-63
2021/08/10 09:23:53;;;;;;;4.67;4.13;;;21.50;1.00;;;;;;4962216;29;20553;-62
2021/08/10 09:26:23;;;;;;;6.83;4.47;;;21.40;1.00;;;;;;4962466;29;20523;-62
2021/08/10 09:28:56;;;;;;;5.30;4.80;;;21.40;1.00;;;;;;4960693;29;20489;-63
2021/08/10 09:31:34;;;;;;;5.90;4.60;;;21.10;1.00;;;;;;4960281;29;20758;-63
2021/08/10 09:34:05;;;;;;;5.20;4.80;;;21.30;1.00;;;;;;4960898;29;20470;-63
2021/08/10 09:36:35;;;;;;;6.50;4.50;;;21.30;1.00;;;;;;4961949;29;20534;-63
2021/08/10 10:19:31;;;;;;;6.47;5.90;;;21.60;1.00;;;;;;2901146;23;20460;-62
2021/08/10 10:56:04;;;;;;;6.90;6.30;;;23.20;87.50;;;;;;5150781;23;20503;-61
2021/08/10 10:58:38;;;;;;;7.13;6.50;;;22.40;91.00;;;;;;5020090;28;20518;-61
2021/08/10 11:01:31;;;;;;;6.83;6.23;;;22.40;92.70;;;;;;5018388;28;20471;-61
2021/08/10 11:04:12;;;;;;;8.07;6.27;;;22.70;92.20;;;;;;5012462;28;20447;-56
2021/08/10 11:06:46;;;;;;;7.00;6.30;;;22.60;93.30;;;;;;4998674;28;20905;-58
2021/08/10 11:09:58;;;;;;;6.37;5.87;;;23.00;93.20;;;;;;5007821;28;20479;-59
2021/08/10 11:12:42;;;;;;;7.00;6.30;;;23.00;93.60;;;;;;5017239;28;20900;-59
2021/08/10 11:15:14;;;;;;;7.10;6.40;;;22.70;94.50;;;;;;5013901;28;20472;-59
2021/08/10 11:17:41;;;;;;;9.00;7.30;;;22.70;95.60;;;;;;5016195;28;20599;-60
2021/08/10 11:20:26;;;;;;;7.43;6.60;;;23.60;96.60;;;;;;5017181;28;20538;-60
2021/08/10 11:23:26;;;;;;;6.30;5.80;;;24.80;92.80;;;;;;5017498;28;20542;-60
2021/08/10 11:26:14;;;;;;;7.13;6.20;;;25.00;90.70;;;;;;5017909;28;20484;-60
2021/08/10 11:28:49;;;;;;;6.37;5.77;;;25.10;90.10;;;;;;5015838;28;20502;-60
2021/08/10 11:31:33;;;;;;;7.03;6.33;;;25.20;88.60;;;;;;5017170;28;20443;-60
2021/08/10 12:12:38;;;;;;;7.10;6.50;;;23.20;92.80;;;;;;5013838;28;20483;-59
2021/08/10 12:15:06;;;;;;;7.23;6.50;;;23.50;93.30;;;;;;5016943;28;20736;-59
2021/08/10 12:17:33;;;;;;;7.10;6.50;;;24.10;92.30;;;;;;5016549;28;20526;-60
2021/08/10 12:20:13;;;;;;;6.97;6.37;;;24.90;91.90;;;;;;5017623;28;20526;-58
2021/08/10 12:22:40;;;;;;;6.40;5.80;;;25.60;90.70;;;;;;5014346;28;20479;-59
2021/08/10 12:25:07;;;;;;;6.90;5.97;;;25.80;85.90;;;;;;5015996;28;20460;-59
2021/08/10 12:27:36;;;;;;;7.10;6.40;;;25.00;86.60;;;;;;5015255;28;20456;-59
2021/08/10 12:30:04;;;;;;;6.73;6.13;;;24.30;89.40;;;;;;5016259;28;20558;-60
2021/08/10 12:32:36;;;;;;;6.43;5.93;;;23.60;91.20;;;;;;5015041;28;20523;-60
2021/08/10 12:35:10;;;;;;;7.33;5.93;;;23.50;92.40;;;;;;5016491;28;20479;-58
2021/08/10 12:37:39;;;;;;;6.17;5.60;;;23.60;92.50;;;;;;5017265;28;20464;-60
2021/08/10 12:40:14;;;;;;;6.13;5.47;;;23.70;92.10;;;;;;5017440;28;20460;-60
2021/08/10 12:42:42;;;;;;;7.30;5.90;;;23.60;90.50;;;;;;5017297;28;20883;-60
2021/08/10 12:45:10;;;;;;;5.60;5.10;;;23.20;90.80;;;;;;5016836;28;20464;-58
2021/08/10 12:47:42;;;;;;;6.73;6.07;;;22.80;92.10;;;;;;5017369;28;20468;-60
2021/08/10 12:50:23;;;;;;;5.50;5.03;;;22.70;92.70;;;;;;5017054;28;20488;-58
2021/08/10 12:52:50;;;;;;;6.83;4.97;;;22.70;92.60;;;;;;5016817;28;20843;-60
2021/08/10 12:55:21;;;;;;;6.10;5.40;;;23.00;93.30;;;;;;5016660;28;20464;-59
2021/08/10 12:58:00;;;;;;;6.83;5.90;;;23.10;92.60;;;;;;5016502;28;20805;-60
2021/08/10 13:00:27;;;;;;;6.20;5.57;;;23.20;92.60;;;;;;5016030;28;20872;-60
2021/08/10 13:02:55;;;;;;;5.10;4.67;;;23.30;93.50;;;;;;5014953;28;20464;-60
2021/08/10 13:05:24;;;;;;;6.37;5.33;;;23.60;91.80;;;;;;5014189;28;20460;-61
2021/08/10 13:08:08;;;;;;;5.80;5.30;;;24.30;90.90;;;;;;5010301;28;20963;-61
2021/08/10 13:10:37;;;;;;;5.00;4.60;;;25.00;89.40;;;;;;5014042;28;20806;-61
2021/08/10 13:13:21;;;;;;;5.93;5.00;;;25.80;82.60;;;;;;5013766;28;20467;-60
2021/08/10 13:15:51;;;;;;;4.80;4.40;;;25.80;79.80;;;;;;5011561;28;20464;-61
2021/08/10 13:18:22;;;;;;;4.93;4.30;;;25.30;81.20;;;;;;5013203;28;20916;-61
2021/08/10 13:20:55;;;;;;;5.40;4.90;;;25.20;82.30;;;;;;5012358;28;20467;-60
2021/08/10 13:23:22;;;;;;;6.17;4.57;;;25.70;80.40;;;;;;5013519;28;20497;-61
2021/08/10 13:26:03;;;;;;;5.67;5.10;;;25.90;79.90;;;;;;5016870;28;20460;-61
2021/08/10 13:28:36;;;;;;;6.23;4.10;;;26.60;75.60;;;;;;5014001;28;20467;-61
2021/08/10 13:31:13;;;;;;;6.30;4.50;;;26.50;73.90;;;;;;5015015;28;20471;-61
2021/08/10 13:33:55;;;;;;;4.60;4.30;;;26.70;72.20;;;;;;4997160;28;20543;-61
2021/08/10 13:36:23;;;;;;;4.83;4.43;;;26.50;99.90;;;;;;5009680;28;20530;-61
2021/08/10 13:38:55;;;;;;;4.33;4.03;;;25.80;99.90;;;;;;5017534;28;20958;-60
2021/08/10 13:41:23;;;;;;;4.50;4.10;;;24.80;99.90;;;;;;5012802;28;20511;-60
2021/08/10 13:43:54;;;;;;;4.70;4.37;;;24.80;99.90;;;;;;5014200;28;20467;-60
2021/08/10 13:46:26;;;;;;;4.43;4.03;;;24.60;99.90;;;;;;5019830;28;20517;-61
2021/08/10 13:48:53;;;;;;;6.53;4.60;;;24.50;99.90;;;;;;5020164;28;20591;-61
2021/08/10 13:51:20;;;;;;;5.07;4.67;;;24.60;99.90;;;;;;5020231;28;20620;-60
2021/08/10 13:53:47;;;;;;;5.10;4.60;;;24.50;99.90;;;;;;5019808;28;20955;-59
2021/08/10 13:56:17;;;;;;;4.17;3.87;;;24.60;99.90;;;;;;5000750;28;20444;-60
2021/08/10 13:58:44;;;;;;;3.63;3.33;;;24.90;99.90;;;;;;5007922;28;20942;-59
2021/08/10 14:01:17;;;;;;;5.23;4.50;;;25.20;99.90;;;;;;5017533;28;20488;-60
2021/08/10 14:03:44;;;;;;;4.40;4.10;;;25.00;99.90;;;;;;5019640;28;20463;-59
2021/08/10 14:06:16;;;;;;;5.43;4.50;;;24.50;99.90;;;;;;5019735;28;20506;-59
2021/08/10 14:08:47;;;;;;;5.50;4.77;;;24.20;99.90;;;;;;5017809;28;20562;-59
2021/08/10 14:11:17;;;;;;;5.87;4.57;;;24.10;99.90;;;;;;5019545;28;20491;-56
2021/08/10 14:48:12;;;;;;;4.23;3.83;;;22.20;1.00;;;;;;5249213;23;20528;-60
2021/08/10 14:50:39;;;;;;;4.63;4.23;;;22.80;1.00;;;;;;5015684;28;20863;-60
2021/08/10 14:53:13;;;;;;;4.90;4.13;;;23.00;1.00;;;;;;5016483;28;20472;-60
2021/08/10 14:55:40;;;;;;;6.10;4.50;;;22.90;1.00;;;;;;5016490;28;20894;-60
2021/08/10 14:58:14;;;;;;;6.70;5.30;;;23.20;1.00;;;;;;5006682;28;20456;-60
2021/08/10 15:00:43;;;;;;;7.50;4.70;;;22.70;1.00;;;;;;5007500;28;20474;-59
2021/08/10 15:03:10;;;;;;;6.00;5.33;;;21.80;1.00;;;;;;5002709;28;20978;-59
2021/08/10 15:05:40;;;;;;;5.03;4.30;;;22.20;1.00;;;;;;5012275;28;20476;-60
2021/08/10 15:42:35;;;;;;;6.13;5.40;;;21.00;1.00;;;;;;5371431;23;20492;-60
2021/08/10 15:45:10;;;;;;;6.53;5.57;;;20.90;1.00;;;;;;5018109;28;20467;-60
2021/08/10 15:47:37;;;;;;;7.13;5.50;;;21.00;1.00;;;;;;5013910;28;20522;-58
2021/08/10 15:50:08;;;;;;;5.97;4.67;;;21.40;1.00;;;;;;5013741;28;20492;-59
2021/08/10 15:52:35;;;;;;;6.13;5.33;;;21.70;1.00;;;;;;5016738;28;20776;-59
2021/08/10 15:55:08;;;;;;;5.13;4.63;;;21.70;1.00;;;;;;5016683;28;20468;-59
2021/08/10 15:57:37;;;;;;;4.73;4.33;;;21.70;1.00;;;;;;5017027;28;20885;-59
2021/08/10 16:00:05;;;;;;;5.27;4.23;;;21.70;1.00;;;;;;5017218;28;20460;-59
2021/08/10 16:39:28;;;;;;;6.10;5.60;;;20.40;1.00;;;;;;3366818;23;20458;-59
2021/08/10 16:41:55;;;;;;;6.27;5.73;;;20.40;1.00;;;;;;5017816;28;20468;-59
2021/08/10 16:44:23;;;;;;;5.97;5.37;;;20.70;1.00;;;;;;5017216;28;20463;-59
2021/08/10 16:46:50;;;;;;;6.40;5.77;;;20.90;1.00;;;;;;5016990;28;20923;-59
2021/08/10 16:49:21;;;;;;;6.13;5.63;;;20.70;1.00;;;;;;5017197;28;20842;-58
2021/08/10 16:51:48;;;;;;;5.63;5.13;;;20.80;1.00;;;;;;5016920;28;20435;-59
2021/08/10 16:54:15;;;;;;;5.90;5.37;;;20.80;1.00;;;;;;5017308;28;20518;-57
2021/08/10 16:56:44;;;;;;;5.83;5.33;;;20.40;1.00;;;;;;5017316;28;20478;-58
2021/08/10 16:59:15;;;;;;;6.43;5.67;;;20.10;1.40;;;;;;5016818;28;20467;-58
2021/08/10 17:01:47;;;;;;;6.37;5.30;;;20.00;22.60;;;;;;5016956;28;20991;-58
2021/08/10 17:04:14;;;;;;;5.00;4.60;;;19.90;55.80;;;;;;5017235;28;20437;-57
2021/08/10 17:06:43;;;;;;;4.80;4.40;;;20.10;99.90;;;;;;5016837;28;20460;-58
2021/08/10 17:09:15;;;;;;;6.07;5.47;;;19.80;14.00;;;;;;5016819;28;20533;-56
2021/08/10 17:11:49;;;;;;;5.13;4.63;;;19.60;75.90;;;;;;5016617;28;20467;-58
2021/08/10 17:14:20;;;;;;;4.90;4.40;;;19.80;99.90;;;;;;5019766;28;20494;-58
2021/08/10 17:53:49;;;;;;;5.00;4.57;;;19.60;99.90;;;;;;5017161;28;20484;-59
2021/08/10 17:56:24;;;;;;;4.97;4.47;;;19.60;99.90;;;;;;5009121;28;20465;-58
2021/08/10 17:58:54;;;;;;;4.77;4.37;;;19.60;99.90;;;;;;5000477;28;20563;-57
2021/08/10 18:01:21;;;;;;;5.00;4.60;;;19.60;99.90;;;;;;5016339;28;20481;-58
2021/08/10 18:03:47;;;;;;;5.23;4.77;;;19.60;99.90;;;;;;5020415;28;20495;-58
2021/08/10 18:06:18;;;;;;;5.03;4.53;;;19.50;99.90;;;;;;5001066;28;20451;-58
2021/08/10 18:08:52;;;;;;;5.90;5.20;;;19.50;99.90;;;;;;5002119;28;20967;-59
2021/08/10 18:11:20;;;;;;;4.97;4.57;;;19.50;99.90;;;;;;5019992;28;20470;-59
2021/08/10 18:13:46;;;;;;;5.27;4.77;;;19.50;99.90;;;;;;5007789;28;20523;-59
2021/08/10 18:16:15;;;;;;;4.93;4.53;;;19.60;99.90;;;;;;5013662;28;20534;-58
2021/08/10 18:18:42;;;;;;;5.17;4.20;;;19.60;99.90;;;;;;5014682;28;20646;-59
2021/08/10 18:21:09;;;;;;;5.47;4.93;;;19.50;99.90;;;;;;5012733;28;20590;-59
2021/08/10 18:23:36;;;;;;;7.30;4.83;;;19.50;99.90;;;;;;5005913;28;20463;-60
2021/08/10 18:26:05;;;;;;;3.80;3.50;;;19.40;99.90;;;;;;5014294;28;20566;-60
2021/08/10 18:28:32;;;;;;;5.20;4.70;;;19.40;99.90;;;;;;5008653;28;20460;-60
2021/08/10 18:36:46;;;;;;;5.83;4.50;;;19.10;1.00;;;;;;5318869;23;20447;-62
2021/08/10 19:16:16;;;;;;;8.30;5.63;;;18.30;1.00;;;;;;4858626;23;20499;-62
2021/08/10 19:18:43;;;;;;;5.83;5.33;;;18.20;99.90;;;;;;5019029;28;20468;-62
2021/08/10 19:21:14;;;;;;;7.13;5.40;;;18.20;99.90;;;;;;5018465;28;20521;-62
2021/08/10 19:23:41;;;;;;;8.50;6.03;;;18.20;99.90;;;;;;5004448;28;20435;-62
2021/08/10 19:26:10;;;;;;;7.33;6.53;;;18.00;99.90;;;;;;5001963;28;20522;-62
2021/08/10 19:28:37;;;;;;;6.40;5.80;;;17.90;99.90;;;;;;5007929;28;20522;-62
2021/08/10 19:31:05;;;;;;;6.73;6.00;;;17.90;99.90;;;;;;5014846;28;20571;-63
2021/08/10 19:36:08;;;;;;;7.90;6.00;;;17.70;99.90;;;;;;5314350;23;20492;-63
2021/08/10 19:38:35;;;;;;;9.13;6.37;;;17.70;99.90;;;;;;5012216;28;20434;-63
2021/08/10 19:41:05;;;;;;;8.10;7.30;;;17.70;99.90;;;;;;5012789;28;20563;-63
2021/08/10 19:43:32;;;;;;;9.20;8.30;;;17.60;99.90;;;;;;5008351;28;20519;-63
2021/08/10 19:46:01;;;;;;;7.40;6.63;;;17.60;99.90;;;;;;5014955;28;20503;-63
2021/08/10 19:48:30;;;;;;;7.67;6.97;;;17.50;99.90;;;;;;5017171;28;20475;-63
2021/08/10 19:50:59;;;;;;;7.93;7.23;;;17.50;99.90;;;;;;5018083;28;20795;-63
2021/08/10 19:53:26;;;;;;;6.83;6.23;;;17.40;99.90;;;;;;5018054;28;20522;-63
2021/08/10 19:55:55;;;;;;;9.33;6.97;;;17.20;99.90;;;;;;5018096;28;20527;-63
2021/08/10 19:58:22;;;;;;;7.30;6.50;;;17.30;99.90;;;;;;5017689;28;20464;-64
2021/08/10 20:00:52;;;;;;;7.20;6.50;;;17.20;99.90;;;;;;5013377;28;20897;-64
2021/08/10 20:03:21;;;;;;;9.33;7.87;;;17.10;99.90;;;;;;5007517;28;20499;-64
2021/08/10 20:05:51;;;;;;;8.07;7.30;;;17.00;99.90;;;;;;5017103;28;20483;-64
2021/08/10 20:08:19;;;;;;;8.33;7.53;;;17.00;99.90;;;;;;5016030;28;20752;-64
2021/08/10 20:10:46;;;;;;;9.10;8.30;;;16.90;99.90;;;;;;5015452;28;20484;-64
2021/08/10 20:13:19;;;;;;;8.40;7.60;;;16.90;99.90;;;;;;5016445;28;20748;-64
2021/08/10 20:15:50;;;;;;;9.00;8.10;;;16.90;99.90;;;;;;4998788;28;20555;-64
2021/08/10 20:18:19;;;;;;;8.87;8.07;;;16.80;99.90;;;;;;5017407;28;20456;-64
2021/08/10 20:20:49;;;;;;;10.57;7.73;;;16.80;99.90;;;;;;5017368;28;20922;-65
2021/08/10 20:23:16;;;;;;;8.30;6.67;;;16.80;99.90;;;;;;5017295;28;20794;-64
2021/08/10 20:25:45;;;;;;;9.27;8.40;;;16.70;99.90;;;;;;5017509;28;20555;-65
2021/08/10 20:28:15;;;;;;;10.00;9.00;;;16.70;99.90;;;;;;5017312;28;20508;-65
2021/08/10 20:30:42;;;;;;;10.20;9.30;;;16.70;99.90;;;;;;5017266;28;20828;-65
2021/08/10 20:33:09;;;;;;;9.50;8.50;;;16.70;99.90;;;;;;5017153;28;20534;-65
2021/08/10 20:35:36;;;;;;;8.93;7.80;;;16.70;99.90;;;;;;5017404;28;20881;-65
2021/08/10 20:38:05;;;;;;;9.20;8.17;;;16.60;99.90;;;;;;4997567;28;20763;-65
2021/08/10 20:40:31;;;;;;;9.70;8.83;;;16.60;99.90;;;;;;4997412;28;20474;-65
2021/08/10 20:43:00;;;;;;;10.93;8.40;;;16.60;99.90;;;;;;4996928;28;20468;-65
2021/08/10 20:45:33;;;;;;;9.10;8.27;;;16.60;99.90;;;;;;4997706;28;20442;-65
2021/08/10 20:48:00;;;;;;;10.63;9.57;;;16.50;99.90;;;;;;4997646;28;20522;-66
2021/08/10 20:50:29;;;;;;;9.60;8.50;;;16.50;99.90;;;;;;4997122;28;20810;-66
2021/08/10 20:53:00;;;;;;;8.00;7.20;;;16.40;99.90;;;;;;4997821;28;20571;-66
2021/08/10 20:55:27;;;;;;;8.77;7.97;;;16.40;99.90;;;;;;4992691;28;20771;-64
2021/08/10 20:57:55;;;;;;;8.63;7.83;;;16.30;99.90;;;;;;4987133;28;20794;-67
2021/08/10 21:00:23;;;;;;;10.40;9.37;;;16.30;99.90;;;;;;4986750;28;21085;-67
2021/08/10 21:02:50;;;;;;;11.50;9.10;;;16.30;99.90;;;;;;4986851;28;20528;-68
2021/08/10 21:05:19;;;;;;;9.53;8.63;;;16.30;99.90;;;;;;4990292;28;20536;-68
2021/08/10 21:07:46;;;;;;;9.93;8.80;;;16.30;99.90;;;;;;4987105;28;20495;-68
2021/08/10 21:10:15;;;;;;;10.87;9.17;;;16.30;99.90;;;;;;4985032;28;20493;-68
2021/08/10 21:12:45;;;;;;;11.53;9.07;;;16.30;99.90;;;;;;4995280;28;20473;-68
2021/08/10 21:15:12;;;;;;;8.97;8.10;;;16.40;99.90;;;;;;4988357;28;20484;-69
2021/08/10 21:17:41;;;;;;;10.37;9.07;;;16.40;99.90;;;;;;4989437;28;20449;-69
2021/08/10 21:20:12;;;;;;;9.93;8.37;;;16.40;99.90;;;;;;4995307;28;20853;-69
2021/08/10 21:22:39;;;;;;;13.20;8.50;;;16.40;99.90;;;;;;4995170;28;20741;-69
2021/08/10 21:25:10;;;;;;;10.10;9.20;;;16.30;99.90;;;;;;4992678;28;20468;-69
2021/08/10 21:30:45;;;;;;;9.10;8.10;;;16.30;99.90;;;;;;4989893;28;20943;-69
2021/08/10 21:33:16;;;;;;;9.00;8.10;;;16.20;99.90;;;;;;4994945;28;20477;-69
2021/08/10 21:35:46;;;;;;;9.17;8.37;;;16.20;99.90;;;;;;4986781;28;20743;-70
2021/08/10 21:38:15;;;;;;;9.27;7.93;;;16.20;99.90;;;;;;5013599;28;20460;-70
2021/08/10 21:40:42;;;;;;;9.30;8.40;;;16.30;99.90;;;;;;5012323;28;20755;-70
2021/08/10 21:43:09;;;;;;;9.30;8.10;;;16.30;99.90;;;;;;5011310;28;20476;-70
2021/08/10 21:45:36;;;;;;;9.40;8.50;;;16.30;99.90;;;;;;5014718;28;20530;-70
2021/08/10 21:48:04;;;;;;;8.10;7.40;;;16.40;99.90;;;;;;5013797;28;20490;-70
2021/08/10 21:50:37;;;;;;;9.23;7.70;;;16.40;99.90;;;;;;5011023;28;20820;-70
2021/08/10 21:53:05;;;;;;;8.47;7.60;;;16.40;99.90;;;;;;5013876;28;20464;-70
2021/08/10 21:55:33;;;;;;;10.53;9.40;;;16.40;99.90;;;;;;5008872;28;20460;-70
2021/08/10 21:58:03;;;;;;;8.90;8.10;;;16.30;99.90;;;;;;5012053;28;20893;-70
2021/08/10 22:00:31;;;;;;;8.80;8.10;;;16.30;99.90;;;;;;5015562;28;20772;-70
2021/08/10 22:02:58;;;;;;;7.87;7.17;;;16.40;99.90;;;;;;5016187;28;20450;-71
2021/08/10 22:05:25;;;;;;;9.47;8.57;;;16.40;99.90;;;;;;5015192;28;20812;-71
2021/08/10 22:07:53;;;;;;;9.90;7.53;;;16.40;99.90;;;;;;5015379;28;20468;-71
2021/08/10 22:10:22;;;;;;;9.83;8.10;;;16.40;99.90;;;;;;5016722;28;20468;-71
2021/08/10 22:12:49;;;;;;;8.50;7.70;;;16.50;99.90;;;;;;5012761;28;20510;-71
2021/08/10 22:15:19;;;;;;;9.07;7.87;;;16.50;99.90;;;;;;5018192;28;20470;-71
2021/08/10 22:17:46;;;;;;;8.87;8.00;;;16.50;99.90;;;;;;5016529;28;20545;-71
2021/08/10 22:20:16;;;;;;;9.43;8.53;;;16.50;99.90;;;;;;5016689;28;20900;-71
2021/08/10 22:22:45;;;;;;;9.20;8.40;;;16.50;99.90;;;;;;5015763;28;20460;-71
2021/08/10 22:25:17;;;;;;;8.47;7.77;;;16.60;99.90;;;;;;5013884;28;20566;-71
2021/08/10 22:27:44;;;;;;;9.30;7.40;;;16.60;99.90;;;;;;5015324;28;20471;-71
2021/08/10 22:30:14;;;;;;;8.90;8.00;;;16.60;99.90;;;;;;5017558;28;20478;-71
2021/08/10 22:32:41;;;;;;;14.00;8.53;;;16.60;99.90;;;;;;5019340;28;20496;-71
2021/08/10 22:35:08;;;;;;;9.37;7.70;;;16.50;99.90;;;;;;5014814;28;20480;-71
2021/08/10 22:37:35;;;;;;;13.77;8.60;;;16.50;99.10;;;;;;5017495;28;20495;-71
2021/08/10 22:40:03;;;;;;;8.60;7.80;;;16.50;99.90;;;;;;5018483;28;20535;-71
2021/08/10 22:42:31;;;;;;;9.13;8.30;;;16.40;99.90;;;;;;5018768;28;20431;-71
2021/08/10 22:44:59;;;;;;;8.70;7.80;;;16.40;99.90;;;;;;5018799;28;20779;-71
2021/08/10 22:47:28;;;;;;;9.57;8.60;;;16.40;99.90;;;;;;5019328;28;20468;-71
2021/08/10 22:49:58;;;;;;;9.47;8.57;;;16.40;99.90;;;;;;5018611;28;20460;-71
2021/08/10 22:52:28;;;;;;;9.17;8.07;;;16.40;99.90;;;;;;5017263;28;20503;-71
2021/08/10 22:54:57;;;;;;;8.27;7.47;;;16.30;99.90;;;;;;5012376;28;20460;-71
2021/08/10 22:57:24;;;;;;;8.10;7.40;;;16.20;99.90;;;;;;5018213;28;20542;-71
2021/08/10 22:59:53;;;;;;;9.10;8.23;;;16.20;99.90;;;;;;5013186;28;20810;-71
2021/08/10 23:02:23;;;;;;;9.80;8.90;;;16.10;99.90;;;;;;5017920;28;20939;-71
2021/08/10 23:04:50;;;;;;;8.67;7.87;;;15.90;99.90;;;;;;5017619;28;20805;-71
2021/08/10 23:07:20;;;;;;;11.37;8.83;;;15.90;99.90;;;;;;5018485;28;20434;-71
2021/08/10 23:09:47;;;;;;;9.40;8.40;;;15.80;99.90;;;;;;5016022;28;20531;-71
2021/08/10 23:12:14;;;;;;;10.17;9.17;;;15.90;99.90;;;;;;5015407;28;20470;-71
2021/08/10 23:14:41;;;;;;;10.33;9.33;;;15.80;99.90;;;;;;5015381;28;20524;-72
2021/08/10 23:17:10;;;;;;;9.87;8.87;;;15.80;99.90;;;;;;5017227;28;20464;-72
2021/08/10 23:19:40;;;;;;;9.07;8.13;;;15.80;99.90;;;;;;5017501;28;20942;-72
2021/08/10 23:22:06;;;;;;;12.17;9.93;;;15.70;99.90;;;;;;5018199;28;20816;-72
2021/08/10 23:24:33;;;;;;;10.10;9.20;;;15.80;99.90;;;;;;5017742;28;20464;-72
2021/08/10 23:27:00;;;;;;;10.97;9.97;;;15.80;99.90;;;;;;5018674;28;20875;-72
2021/08/10 23:29:28;;;;;;;9.40;8.53;;;15.70;99.90;;;;;;5018848;28;20524;-72
2021/08/10 23:31:57;;;;;;;9.87;8.83;;;15.70;99.90;;;;;;5018017;28;20492;-72
2021/08/10 23:34:25;;;;;;;9.30;8.40;;;15.70;99.90;;;;;;5017389;28;20871;-73
2021/08/10 23:36:55;;;;;;;10.23;9.33;;;15.70;99.90;;;;;;5017870;28;20522;-73
2021/08/10 23:39:22;;;;;;;9.87;9.07;;;15.80;99.90;;;;;;5016746;28;20446;-73
2021/08/10 23:41:48;;;;;;;10.63;9.73;;;15.70;99.90;;;;;;5012503;28;20434;-73
2021/08/10 23:44:16;;;;;;;9.60;8.60;;;15.70;99.90;;;;;;5009045;28;20447;-73
2021/08/10 23:46:43;;;;;;;12.07;9.33;;;15.60;99.90;;;;;;5016534;28;20447;-73
2021/08/10 23:49:13;;;;;;;10.10;9.10;;;15.70;99.90;;;;;;5018130;28;20477;-72
2021/08/10 23:51:42;;;;;;;11.00;10.00;;;15.60;99.90;;;;;;5017577;28;20800;-73
2021/08/10 23:54:13;;;;;;;9.93;9.00;;;15.50;99.90;;;;;;5017955;28;20464;-72
2021/08/10 23:56:41;;;;;;;11.53;10.37;;;15.50;99.90;;;;;;5016356;28;20435;-72
2021/08/10 23:59:07;;;;;;;11.70;10.43;;;15.50;99.90;;;;;;5016590;28;20522;-72
